Time;durP1;ratioP1;P1;durP2;ratioP2;P2;SDS_P1;SDS_P2;PMS_P1;PMS_P2;Temp;Humidity;BMP_temperature;BMP_pressure;BME280_temperature;BME280_humidity;BME280_pressure;Samples;Min_cycle;Max_cycle;Signal;HPM_P1;HPM_P2
2021/05/28 00:00:18;;;;;;;3.10;2.80;;;13.90;99.90;;;;;;5034486;28;20197;-78
2021/05/28 00:02:44;;;;;;;4.07;2.90;;;13.90;99.90;;;;;;5035056;28;20207;-78
2021/05/28 00:05:10;;;;;;;5.20;3.00;;;13.90;99.90;;;;;;5035138;28;20503;-78
2021/05/28 00:07:36;;;;;;;2.33;2.13;;;13.80;99.90;;;;;;5036388;28;20174;-78
2021/05/28 00:10:02;;;;;;;3.00;2.50;;;13.80;99.90;;;;;;5034966;28;20327;-78
2021/05/28 00:12:29;;;;;;;3.38;3.08;;;13.70;99.90;;;;;;5034157;28;20196;-79
2021/05/28 00:14:55;;;;;;;3.63;2.85;;;13.80;99.90;;;;;;5036034;28;20176;-78
2021/05/28 00:17:20;;;;;;;3.60;2.60;;;13.90;99.90;;;;;;5035200;28;20197;-78
2021/05/28 00:19:46;;;;;;;3.00;2.60;;;13.80;99.90;;;;;;5017904;28;20185;-78
2021/05/28 00:22:11;;;;;;;3.07;2.77;;;13.90;99.90;;;;;;5034635;28;20777;-77
2021/05/28 00:24:37;;;;;;;3.83;2.80;;;14.00;99.90;;;;;;5033779;28;20181;-77
2021/05/28 00:27:03;;;;;;;4.83;3.20;;;13.80;99.90;;;;;;5034807;28;20185;-78
2021/05/28 00:29:28;;;;;;;4.33;3.17;;;13.90;99.90;;;;;;5033567;28;20177;-78
2021/05/28 00:31:54;;;;;;;3.27;2.97;;;13.80;99.90;;;;;;5036231;28;20446;-78
2021/05/28 00:34:19;;;;;;;3.50;3.20;;;13.90;99.90;;;;;;5035162;28;20173;-78
2021/05/28 00:36:45;;;;;;;2.80;2.60;;;13.80;99.90;;;;;;5018736;28;20209;-78
2021/05/28 00:39:10;;;;;;;4.97;3.80;;;13.80;99.90;;;;;;5019061;28;20212;-78
2021/05/28 00:41:36;;;;;;;4.93;3.70;;;13.90;99.90;;;;;;5034829;28;20281;-78
2021/05/28 00:44:02;;;;;;;3.40;3.10;;;13.90;99.90;;;;;;5034276;28;20197;-77
2021/05/28 00:46:28;;;;;;;4.45;3.03;;;13.80;99.90;;;;;;5035546;28;20264;-78
2021/05/28 00:48:54;;;;;;;3.80;3.20;;;13.90;99.90;;;;;;5036584;28;20224;-78
2021/05/28 00:51:21;;;;;;;3.40;2.85;;;13.90;99.90;;;;;;5036101;28;20193;-78
2021/05/28 00:53:47;;;;;;;3.35;2.95;;;13.80;99.90;;;;;;5036383;28;20617;-78
2021/05/28 00:56:15;;;;;;;4.07;3.27;;;13.80;99.90;;;;;;5036150;28;20177;-79
2021/05/28 00:58:41;;;;;;;3.20;2.90;;;13.90;99.90;;;;;;5035960;28;20428;-78
2021/05/28 01:01:07;;;;;;;4.07;3.30;;;13.90;99.90;;;;;;5034534;28;20154;-79
2021/05/28 01:03:33;;;;;;;4.83;3.57;;;13.90;99.90;;;;;;5034399;28;20488;-79
2021/05/28 01:05:58;;;;;;;3.40;3.10;;;13.80;99.90;;;;;;5018213;28;20957;-80
2021/05/28 01:08:24;;;;;;;8.97;3.80;;;13.60;99.90;;;;;;5036592;28;20614;-79
2021/05/28 01:10:49;;;;;;;4.53;2.73;;;13.70;99.90;;;;;;5039174;28;20273;-79
2021/05/28 01:13:15;;;;;;;4.40;3.30;;;13.60;99.90;;;;;;5038280;28;20194;-79
2021/05/28 01:15:41;;;;;;;4.33;3.93;;;13.50;99.90;;;;;;5037064;28;20284;-79
2021/05/28 01:18:07;;;;;;;4.60;2.70;;;13.50;99.90;;;;;;5038521;28;20177;-79
2021/05/28 01:20:34;;;;;;;7.68;3.42;;;13.50;99.90;;;;;;5037445;28;20918;-79
2021/05/28 01:23:01;;;;;;;4.05;3.53;;;13.60;99.90;;;;;;5038260;28;20198;-79
2021/05/28 01:25:27;;;;;;;3.10;2.80;;;13.60;99.90;;;;;;5038917;28;20166;-79
2021/05/28 01:27:52;;;;;;;5.90;3.30;;;13.50;99.90;;;;;;5038895;28;20169;-79
2021/05/28 01:30:18;;;;;;;3.50;3.20;;;13.70;99.90;;;;;;5038767;28;20430;-79
2021/05/28 01:32:45;;;;;;;5.33;3.63;;;13.60;99.90;;;;;;5038306;28;20247;-78
2021/05/28 01:35:13;;;;;;;4.45;3.60;;;13.60;99.90;;;;;;5036370;28;20452;-78
2021/05/28 01:37:39;;;;;;;4.32;3.30;;;13.60;99.90;;;;;;5037866;28;20180;-78
2021/05/28 01:40:06;;;;;;;4.00;3.30;;;13.60;99.90;;;;;;5037962;28;20173;-78
2021/05/28 01:42:32;;;;;;;6.07;3.40;;;13.70;99.90;;;;;;5036438;28;20689;-78
2021/05/28 01:44:58;;;;;;;6.80;3.87;;;13.70;99.90;;;;;;5036267;28;20173;-78
2021/05/28 01:47:24;;;;;;;4.63;3.97;;;13.70;99.90;;;;;;5036597;28;20177;-78
2021/05/28 01:49:50;;;;;;;4.30;3.70;;;13.70;99.90;;;;;;5037186;28;20184;-78
2021/05/28 01:52:16;;;;;;;5.13;4.30;;;13.70;99.90;;;;;;5035408;28;20956;-78
2021/05/28 01:54:41;;;;;;;3.83;3.40;;;13.70;99.90;;;;;;5036434;28;20428;-79
2021/05/28 01:57:09;;;;;;;4.53;3.50;;;13.70;99.90;;;;;;5036204;28;20232;-78
2021/05/28 01:59:35;;;;;;;5.43;3.70;;;13.60;99.90;;;;;;5037408;28;20189;-78
2021/05/28 02:02:00;;;;;;;5.10;2.70;;;13.60;99.90;;;;;;5037259;28;20660;-79
2021/05/28 02:04:27;;;;;;;4.47;3.27;;;13.60;99.90;;;;;;5036837;28;20201;-78
2021/05/28 02:06:54;;;;;;;5.00;3.28;;;13.60;99.90;;;;;;5036470;28;20896;-78
2021/05/28 02:09:20;;;;;;;4.97;3.80;;;13.50;99.90;;;;;;5035903;28;20174;-79
2021/05/28 02:11:46;;;;;;;4.37;3.33;;;13.30;99.90;;;;;;5037500;28;20193;-79
2021/05/28 02:14:12;;;;;;;3.77;3.27;;;13.40;99.90;;;;;;5036381;28;20613;-79
2021/05/28 02:16:38;;;;;;;3.87;3.30;;;13.30;99.90;;;;;;5035698;28;20439;-78
2021/05/28 02:19:06;;;;;;;4.18;3.40;;;13.40;99.90;;;;;;5036918;28;20170;-79
2021/05/28 02:21:32;;;;;;;3.88;3.10;;;13.60;99.90;;;;;;5036741;28;20197;-79
2021/05/28 02:23:57;;;;;;;4.80;3.80;;;13.50;99.90;;;;;;5037128;28;20247;-78
2021/05/28 02:26:23;;;;;;;4.43;3.50;;;13.40;99.90;;;;;;5037215;28;20213;-78
2021/05/28 02:28:49;;;;;;;4.57;3.33;;;13.40;99.90;;;;;;5037356;28;20206;-78
2021/05/28 02:31:15;;;;;;;4.30;3.60;;;13.30;99.90;;;;;;5035899;28;20933;-78
2021/05/28 02:33:41;;;;;;;4.80;4.00;;;13.30;99.90;;;;;;5033813;28;20182;-78
2021/05/28 02:36:07;;;;;;;7.90;4.07;;;13.40;99.90;;;;;;5033769;28;20523;-77
2021/05/28 02:38:33;;;;;;;4.05;3.65;;;13.50;99.90;;;;;;5033759;28;20183;-77
2021/05/28 02:40:59;;;;;;;5.80;4.33;;;13.50;99.90;;;;;;5036843;28;20233;-79
2021/05/28 02:43:25;;;;;;;5.37;3.50;;;13.30;99.90;;;;;;5034993;28;20498;-78
2021/05/28 02:45:52;;;;;;;4.72;3.75;;;13.40;99.90;;;;;;5035903;28;20412;-77
2021/05/28 02:48:18;;;;;;;3.90;3.05;;;13.50;99.90;;;;;;5033960;28;20193;-79
2021/05/28 02:50:44;;;;;;;7.50;3.08;;;13.30;99.90;;;;;;5037188;28;20161;-79
2021/05/28 02:53:10;;;;;;;4.20;3.40;;;13.30;99.90;;;;;;5034768;28;20193;-79
2021/05/28 02:55:37;;;;;;;5.50;4.13;;;13.40;99.90;;;;;;5036505;28;20425;-79
2021/05/28 02:58:02;;;;;;;7.18;3.40;;;13.40;99.90;;;;;;5037641;28;20565;-79
2021/05/28 03:00:28;;;;;;;4.70;3.70;;;13.40;99.90;;;;;;5036756;28;20193;-78
2021/05/28 03:02:53;;;;;;;3.90;2.77;;;13.50;99.90;;;;;;5036167;28;20350;-78
2021/05/28 03:05:19;;;;;;;4.50;2.77;;;13.50;99.90;;;;;;5035850;28;20169;-78
2021/05/28 03:07:45;;;;;;;3.23;2.73;;;13.40;99.90;;;;;;5035635;28;20176;-79
2021/05/28 03:10:11;;;;;;;3.53;3.23;;;13.30;99.90;;;;;;5037026;28;20169;-78
2021/05/28 03:12:37;;;;;;;3.15;2.75;;;13.30;99.90;;;;;;5035659;28;20649;-78
2021/05/28 03:15:04;;;;;;;3.50;2.63;;;13.30;99.90;;;;;;5019268;28;20178;-79
2021/05/28 03:17:29;;;;;;;3.95;3.42;;;13.20;99.90;;;;;;5035653;28;20176;-79
2021/05/28 03:19:55;;;;;;;3.60;3.20;;;13.40;99.90;;;;;;5035387;28;20549;-78
2021/05/28 03:22:36;;;;;;;3.10;2.67;;;13.20;99.90;;;;;;5033306;28;20201;-78
2021/05/28 03:25:04;;;;;;;3.22;2.30;;;13.30;99.90;;;;;;5033012;28;20212;-78
2021/05/28 03:27:29;;;;;;;5.00;2.97;;;13.30;99.90;;;;;;5034627;28;20173;-78
2021/05/28 03:29:55;;;;;;;3.13;2.57;;;13.30;99.90;;;;;;5034977;28;20222;-78
2021/05/28 03:32:21;;;;;;;3.47;2.90;;;13.20;99.90;;;;;;5033847;28;20283;-79
2021/05/28 03:34:46;;;;;;;3.40;2.70;;;13.10;99.90;;;;;;5034856;28;20174;-78
2021/05/28 03:37:12;;;;;;;3.93;2.73;;;13.10;99.90;;;;;;5033559;28;20173;-79
2021/05/28 03:39:38;;;;;;;2.55;2.35;;;13.10;99.90;;;;;;5034725;28;20180;-78
2021/05/28 03:42:04;;;;;;;2.03;1.80;;;13.20;99.90;;;;;;5035969;28;20288;-78
2021/05/28 03:44:30;;;;;;;3.55;2.30;;;13.20;99.90;;;;;;5036510;28;20213;-78
2021/05/28 03:46:55;;;;;;;3.43;2.77;;;13.20;99.90;;;;;;5040491;28;20196;-78
2021/05/28 03:49:21;;;;;;;2.50;2.23;;;13.10;99.90;;;;;;5038751;28;20260;-78
2021/05/28 03:51:47;;;;;;;2.93;2.70;;;13.20;99.90;;;;;;5034720;28;20182;-78
2021/05/28 03:54:15;;;;;;;7.97;2.70;;;13.10;99.90;;;;;;5033089;28;20193;-79
2021/05/28 03:56:41;;;;;;;3.72;2.92;;;13.20;99.90;;;;;;5034993;28;20169;-77
2021/05/28 03:59:06;;;;;;;3.00;2.60;;;13.10;99.90;;;;;;5034747;28;20196;-78
2021/05/28 04:01:32;;;;;;;5.27;2.33;;;13.10;99.90;;;;;;5034899;28;20201;-78
2021/05/28 04:03:58;;;;;;;4.47;2.70;;;13.20;99.90;;;;;;5035311;28;20884;-78
2021/05/28 04:06:23;;;;;;;3.60;2.50;;;13.20;99.90;;;;;;5017818;28;20178;-79
2021/05/28 04:08:49;;;;;;;3.00;2.23;;;13.10;99.90;;;;;;5035805;28;20178;-79
2021/05/28 04:11:15;;;;;;;3.67;2.80;;;13.10;99.90;;;;;;5035043;28;20661;-78
2021/05/28 04:13:40;;;;;;;3.20;2.70;;;12.90;99.90;;;;;;5034691;28;20212;-78
2021/05/28 04:16:07;;;;;;;3.40;2.40;;;12.70;99.90;;;;;;5034827;28;20183;-78
2021/05/28 04:18:32;;;;;;;3.38;2.20;;;12.80;99.90;;;;;;5035804;28;20165;-79
2021/05/28 04:20:58;;;;;;;4.90;3.23;;;13.00;99.90;;;;;;5036822;28;20664;-79
2021/05/28 04:23:24;;;;;;;2.90;2.60;;;13.00;99.90;;;;;;5034425;28;20660;-79
2021/05/28 04:25:50;;;;;;;3.60;2.70;;;12.90;99.90;;;;;;5034328;28;20170;-78
2021/05/28 04:28:18;;;;;;;3.67;2.80;;;12.90;99.90;;;;;;5035963;28;20423;-79
2021/05/28 04:30:44;;;;;;;5.50;2.88;;;13.00;99.90;;;;;;5017258;28;20584;-79
2021/05/28 04:33:10;;;;;;;5.38;3.67;;;13.00;99.90;;;;;;5033344;28;20182;-78
2021/05/28 04:35:35;;;;;;;3.60;2.90;;;12.80;99.90;;;;;;5034005;28;20189;-78
2021/05/28 04:38:02;;;;;;;4.47;2.60;;;13.00;99.90;;;;;;5034208;28;20185;-78
2021/05/28 04:40:30;;;;;;;4.78;2.67;;;13.10;99.90;;;;;;5034883;28;20185;-79
2021/05/28 04:42:56;;;;;;;4.20;2.80;;;13.10;99.90;;;;;;5036406;28;20193;-78
2021/05/28 04:45:22;;;;;;;4.28;2.83;;;13.00;99.90;;;;;;5037622;28;20177;-78
2021/05/28 04:47:48;;;;;;;3.20;2.80;;;13.00;99.90;;;;;;5037675;28;20174;-78
2021/05/28 04:50:14;;;;;;;5.57;2.77;;;13.20;99.90;;;;;;5037709;28;20217;-78
2021/05/28 04:52:41;;;;;;;6.73;4.60;;;13.10;99.90;;;;;;5036975;28;20205;-78
2021/05/28 04:55:08;;;;;;;4.07;2.45;;;13.00;99.90;;;;;;5037876;28;20223;-78
2021/05/28 04:57:34;;;;;;;3.33;2.85;;;13.20;99.90;;;;;;5038334;28;20620;-79
2021/05/28 04:59:59;;;;;;;4.00;2.43;;;13.20;99.90;;;;;;5037569;28;20189;-79
2021/05/28 05:02:25;;;;;;;3.70;3.27;;;13.20;99.90;;;;;;5032887;28;20214;-78
2021/05/28 05:04:50;;;;;;;4.23;2.63;;;13.40;99.90;;;;;;5019053;28;20236;-78
2021/05/28 05:07:16;;;;;;;3.47;2.63;;;13.30;99.90;;;;;;5036040;28;20633;-78
2021/05/28 05:09:41;;;;;;;2.40;2.20;;;13.30;99.90;;;;;;5023125;28;20232;-78
2021/05/28 05:12:07;;;;;;;4.57;2.93;;;12.90;99.90;;;;;;5037393;28;20256;-78
2021/05/28 05:14:33;;;;;;;3.80;2.73;;;12.80;99.90;;;;;;5036542;28;20348;-77
2021/05/28 05:16:58;;;;;;;3.27;2.93;;;12.80;99.90;;;;;;5037472;28;20427;-78
2021/05/28 05:19:24;;;;;;;3.07;2.80;;;13.00;99.90;;;;;;5035408;28;20204;-79
2021/05/28 05:21:50;;;;;;;3.10;2.67;;;13.10;99.90;;;;;;5036692;28;20205;-79
2021/05/28 05:24:15;;;;;;;2.97;2.78;;;12.80;99.90;;;;;;5040624;28;20629;-78
2021/05/28 05:26:41;;;;;;;3.43;2.93;;;13.00;99.90;;;;;;5035450;28;20304;-80
2021/05/28 05:29:09;;;;;;;3.97;3.57;;;12.90;99.90;;;;;;5035526;28;20213;-80
2021/05/28 05:31:35;;;;;;;5.63;3.10;;;13.00;99.90;;;;;;5036438;28;20201;-79
2021/05/28 05:34:00;;;;;;;3.70;3.00;;;13.10;99.90;;;;;;5037327;28;20173;-78
2021/05/28 05:36:26;;;;;;;3.80;3.30;;;13.10;99.90;;;;;;5034692;28;20182;-79
2021/05/28 05:38:52;;;;;;;8.30;3.27;;;13.30;99.90;;;;;;5036364;28;20177;-79
2021/05/28 05:41:20;;;;;;;4.53;3.30;;;13.20;99.90;;;;;;5037816;28;20619;-80
2021/05/28 05:43:46;;;;;;;3.97;3.42;;;13.30;99.90;;;;;;5069834;28;20300;-80
2021/05/28 05:46:12;;;;;;;6.47;3.80;;;13.30;99.90;;;;;;5047380;28;20216;-80
2021/05/28 05:48:38;;;;;;;4.90;3.58;;;13.40;99.90;;;;;;5057692;28;20177;-81
2021/05/28 05:51:04;;;;;;;4.20;2.97;;;13.50;99.90;;;;;;5057594;28;20177;-80
2021/05/28 05:53:29;;;;;;;2.93;2.67;;;13.70;99.90;;;;;;5059278;28;20536;-79
2021/05/28 05:55:55;;;;;;;4.77;3.83;;;14.00;99.90;;;;;;5053440;28;20200;-80
2021/05/28 05:58:20;;;;;;;4.67;3.17;;;14.30;99.90;;;;;;5041103;28;20169;-78
2021/05/28 06:00:46;;;;;;;5.20;3.70;;;14.50;99.90;;;;;;5054654;28;20693;-78
2021/05/28 06:03:12;;;;;;;3.73;3.43;;;14.40;99.90;;;;;;5060260;28;20200;-78
2021/05/28 06:05:40;;;;;;;3.80;3.10;;;14.60;99.90;;;;;;5058007;28;20686;-78
2021/05/28 06:08:05;;;;;;;5.10;3.22;;;14.40;99.90;;;;;;5060640;28;20174;-79
2021/05/28 06:10:31;;;;;;;2.83;2.57;;;14.70;99.90;;;;;;5057245;28;20276;-78
2021/05/28 06:13:07;;;;;;;8.50;3.80;;;14.40;99.90;;;;;;5058239;28;20184;-78
2021/05/28 06:15:33;;;;;;;3.70;3.40;;;14.50;99.90;;;;;;5054388;28;20532;-77
2021/05/28 06:17:59;;;;;;;3.25;2.95;;;14.20;99.90;;;;;;5051433;28;20664;-79
2021/05/28 06:20:25;;;;;;;12.47;3.53;;;14.00;99.90;;;;;;5044399;28;20197;-77
2021/05/28 06:22:50;;;;;;;6.87;4.33;;;13.80;99.90;;;;;;5039853;28;20480;-82
2021/05/28 06:25:16;;;;;;;4.87;3.93;;;13.70;99.90;;;;;;5050773;28;20192;-77
2021/05/28 06:27:42;;;;;;;3.97;3.60;;;13.70;99.90;;;;;;5034866;28;20170;-77
2021/05/28 06:30:09;;;;;;;3.63;3.30;;;13.80;99.90;;;;;;5034084;28;20949;-77
2021/05/28 06:32:35;;;;;;;4.00;2.70;;;13.80;99.90;;;;;;5015289;28;20435;-78
2021/05/28 06:35:00;;;;;;;3.70;3.07;;;13.70;99.90;;;;;;5015941;28;20646;-79
2021/05/28 06:37:26;;;;;;;3.87;3.27;;;13.50;99.90;;;;;;5035011;28;20181;-77
2021/05/28 06:39:52;;;;;;;4.30;3.90;;;13.40;99.90;;;;;;5035693;28;20182;-78
2021/05/28 06:42:18;;;;;;;4.87;3.57;;;13.40;99.90;;;;;;5035215;28;20209;-78
2021/05/28 06:44:43;;;;;;;4.90;4.18;;;13.50;99.90;;;;;;5035825;28;20791;-78
2021/05/28 06:47:09;;;;;;;3.90;3.50;;;13.60;99.90;;;;;;5035773;28;20176;-77
2021/05/28 06:49:35;;;;;;;8.80;3.30;;;13.50;99.90;;;;;;5040470;28;20525;-78
2021/05/28 06:52:00;;;;;;;4.57;3.53;;;13.30;99.90;;;;;;5016911;28;20197;-77
2021/05/28 06:54:26;;;;;;;7.00;3.37;;;13.40;99.90;;;;;;5035833;28;20473;-79
2021/05/28 06:56:51;;;;;;;6.90;4.33;;;13.40;99.90;;;;;;5032661;28;20173;-77
2021/05/28 06:59:17;;;;;;;7.03;3.80;;;13.40;99.90;;;;;;5032891;28;20189;-78
2021/05/28 07:01:42;;;;;;;5.83;5.17;;;13.50;99.90;;;;;;5034322;28;20197;-77
2021/05/28 07:04:08;;;;;;;5.07;4.13;;;13.40;99.90;;;;;;5033608;28;21290;-78
2021/05/28 07:06:34;;;;;;;4.70;4.07;;;13.40;99.90;;;;;;5033504;28;20268;-77
2021/05/28 07:09:00;;;;;;;6.10;4.50;;;13.40;99.90;;;;;;5034203;28;20169;-77
2021/05/28 07:11:26;;;;;;;4.50;3.70;;;13.40;99.90;;;;;;5034590;28;20276;-77
2021/05/28 07:13:52;;;;;;;6.03;4.38;;;13.40;99.90;;;;;;5034979;28;20201;-77
2021/05/28 07:16:18;;;;;;;4.90;4.43;;;13.60;99.90;;;;;;5036054;28;20173;-78
2021/05/28 07:18:44;;;;;;;5.22;4.47;;;13.60;99.90;;;;;;5035587;28;20166;-77
2021/05/28 07:21:09;;;;;;;5.10;4.40;;;13.60;99.90;;;;;;5034331;28;21833;-78
2021/05/28 07:23:35;;;;;;;4.30;3.83;;;13.60;99.90;;;;;;5036870;28;20256;-78
2021/05/28 07:26:02;;;;;;;4.43;3.90;;;13.70;99.90;;;;;;5033953;28;20177;-77
2021/05/28 07:28:28;;;;;;;8.18;5.00;;;13.80;99.90;;;;;;5033594;28;20196;-78
2021/05/28 07:30:54;;;;;;;5.53;4.97;;;13.60;99.90;;;;;;5034306;28;20177;-77
2021/05/28 07:33:20;;;;;;;5.07;4.57;;;13.70;99.90;;;;;;5035433;28;20252;-76
2021/05/28 07:35:46;;;;;;;7.13;4.90;;;14.00;99.90;;;;;;5017364;28;20174;-78
2021/05/28 07:38:12;;;;;;;5.82;4.60;;;13.70;99.90;;;;;;5034271;28;20177;-78
2021/05/28 07:40:38;;;;;;;4.67;4.07;;;13.80;99.90;;;;;;5034675;28;20177;-78
2021/05/28 07:43:03;;;;;;;5.17;4.67;;;13.90;99.90;;;;;;5035204;28;20205;-78
2021/05/28 07:45:29;;;;;;;5.90;4.40;;;14.10;99.90;;;;;;5033974;28;20930;-77
2021/05/28 07:47:55;;;;;;;5.57;4.03;;;14.20;99.90;;;;;;5032444;28;20409;-77
2021/05/28 07:50:21;;;;;;;5.03;3.78;;;14.30;99.90;;;;;;5032516;28;20178;-77
2021/05/28 07:52:47;;;;;;;4.73;4.23;;;14.40;99.90;;;;;;5030960;28;20209;-77
2021/05/28 07:55:12;;;;;;;5.60;4.07;;;14.30;99.90;;;;;;5031569;28;20469;-77
2021/05/28 07:57:38;;;;;;;7.23;5.37;;;14.40;99.90;;;;;;5034307;28;20177;-78
2021/05/28 08:00:06;;;;;;;6.50;4.70;;;14.50;99.90;;;;;;5032502;28;20185;-77
2021/05/28 08:02:32;;;;;;;6.15;4.13;;;14.50;99.90;;;;;;5014942;28;20200;-77
2021/05/28 08:04:58;;;;;;;5.97;3.90;;;14.80;99.90;;;;;;5032876;28;20188;-76
2021/05/28 08:07:23;;;;;;;5.03;4.50;;;15.00;99.90;;;;;;5032712;28;20409;-77
2021/05/28 08:09:49;;;;;;;6.43;4.10;;;15.00;99.90;;;;;;5032658;28;20647;-77
2021/05/28 08:12:17;;;;;;;5.00;3.50;;;15.20;99.90;;;;;;5032970;28;20196;-77
2021/05/28 08:14:42;;;;;;;9.40;3.97;;;15.10;99.90;;;;;;5032064;28;20422;-77
2021/05/28 08:17:08;;;;;;;3.33;3.13;;;15.30;99.90;;;;;;5031636;28;20404;-78
2021/05/28 08:19:33;;;;;;;4.80;3.53;;;15.40;99.90;;;;;;5031680;28;20552;-77
2021/05/28 08:21:59;;;;;;;3.90;3.50;;;15.30;99.90;;;;;;5015307;28;20575;-77
2021/05/28 08:24:25;;;;;;;3.73;3.33;;;15.40;99.90;;;;;;5015880;28;20699;-77
2021/05/28 08:26:51;;;;;;;5.10;3.80;;;15.60;99.90;;;;;;5033176;28;20222;-78
2021/05/28 08:29:16;;;;;;;3.50;3.20;;;15.80;99.90;;;;;;5031414;28;20173;-78
2021/05/28 08:31:42;;;;;;;3.20;2.90;;;16.10;99.90;;;;;;5034667;28;20189;-78
2021/05/28 08:34:08;;;;;;;3.70;3.30;;;16.40;99.90;;;;;;5032868;28;20539;-78
2021/05/28 08:36:33;;;;;;;6.00;3.83;;;16.50;99.90;;;;;;5031359;28;20180;-78
2021/05/28 08:38:59;;;;;;;5.90;3.37;;;16.60;99.90;;;;;;5033478;28;20495;-77
2021/05/28 08:41:26;;;;;;;4.03;3.37;;;16.70;99.90;;;;;;5033434;28;20201;-77
2021/05/28 08:43:52;;;;;;;3.70;3.10;;;16.70;99.90;;;;;;5032558;28;20247;-78
2021/05/28 08:46:18;;;;;;;4.30;3.33;;;16.20;99.90;;;;;;5033167;28;20408;-77
2021/05/28 08:48:44;;;;;;;3.90;3.50;;;16.00;99.90;;;;;;5031809;28;20176;-78
2021/05/28 08:51:10;;;;;;;3.50;3.20;;;16.10;99.90;;;;;;5032833;28;20458;-78
2021/05/28 08:53:35;;;;;;;5.20;3.53;;;16.00;99.90;;;;;;5034466;28;20413;-78
2021/05/28 08:56:01;;;;;;;3.97;3.00;;;16.00;99.90;;;;;;5032479;28;20420;-78
2021/05/28 08:58:28;;;;;;;8.20;3.27;;;15.80;99.90;;;;;;5015948;28;20176;-78
2021/05/28 09:00:54;;;;;;;3.00;2.70;;;15.90;99.90;;;;;;5032522;28;20177;-78
2021/05/28 09:03:28;;;;;;;4.57;3.73;;;15.80;99.90;;;;;;5032584;28;20458;-77
2021/05/28 09:05:56;;;;;;;5.57;3.50;;;15.90;99.90;;;;;;5032519;28;20168;-77
2021/05/28 09:08:33;;;;;;;3.13;2.83;;;15.80;99.90;;;;;;5032362;28;20404;-77
2021/05/28 09:11:06;;;;;;;3.90;2.70;;;16.00;99.90;;;;;;5032306;28;20404;-77
2021/05/28 09:13:34;;;;;;;3.40;3.00;;;16.00;99.90;;;;;;5031080;28;20448;-77
2021/05/28 09:16:06;;;;;;;3.40;3.10;;;16.20;99.90;;;;;;5033044;28;20431;-77
2021/05/28 09:18:48;;;;;;;5.70;3.07;;;15.90;99.90;;;;;;5033679;28;20412;-78
2021/05/28 09:21:30;;;;;;;5.10;3.37;;;16.00;99.90;;;;;;5031970;28;20490;-78
2021/05/28 09:23:56;;;;;;;2.43;2.23;;;16.20;99.90;;;;;;5032272;28;20498;-77
2021/05/28 09:26:25;;;;;;;3.73;2.43;;;16.40;99.90;;;;;;5034119;28;21033;-77
2021/05/28 09:28:51;;;;;;;5.83;2.83;;;16.30;99.90;;;;;;5032098;28;20712;-78
2021/05/28 09:31:22;;;;;;;4.80;2.73;;;16.10;99.90;;;;;;5033806;28;20429;-78
2021/05/28 09:33:55;;;;;;;2.80;2.37;;;16.20;99.90;;;;;;5035710;28;20483;-77
2021/05/28 09:36:35;;;;;;;2.20;2.00;;;16.20;99.90;;;;;;5035693;28;20825;-76
2021/05/28 09:39:12;;;;;;;2.00;1.80;;;15.90;99.90;;;;;;5034906;28;20416;-77
2021/05/28 09:41:50;;;;;;;1.50;1.10;;;15.80;99.90;;;;;;5035466;28;20453;-77
2021/05/28 09:44:28;;;;;;;1.10;0.83;;;15.80;99.90;;;;;;5034327;28;20542;-77
2021/05/28 09:47:16;;;;;;;5.13;1.50;;;15.80;99.90;;;;;;5036678;28;20407;-77
2021/05/28 09:49:44;;;;;;;1.73;1.10;;;16.00;99.90;;;;;;5036611;28;20419;-76
2021/05/28 09:52:16;;;;;;;1.30;0.90;;;16.00;99.90;;;;;;5036752;28;20428;-77
2021/05/28 09:55:02;;;;;;;2.43;0.80;;;16.20;99.90;;;;;;5036467;28;20416;-77
2021/05/28 09:57:39;;;;;;;1.17;0.70;;;16.10;99.90;;;;;;5036174;28;20631;-77
2021/05/28 10:00:08;;;;;;;1.20;0.90;;;16.00;99.90;;;;;;5036411;28;20985;-77
2021/05/28 10:02:37;;;;;;;1.37;1.13;;;15.90;99.90;;;;;;5034895;28;20442;-77
2021/05/28 10:05:05;;;;;;;1.37;1.00;;;15.80;99.90;;;;;;5033774;28;20423;-77
2021/05/28 10:07:31;;;;;;;1.37;0.83;;;15.30;99.90;;;;;;5017505;28;20423;-77
2021/05/28 10:09:57;;;;;;;1.60;1.20;;;15.10;99.90;;;;;;5034700;28;20434;-77
2021/05/28 10:12:24;;;;;;;5.10;1.10;;;14.80;99.90;;;;;;5034666;28;20525;-77
2021/05/28 10:14:51;;;;;;;1.15;0.95;;;;;;;;;;5034993;28;20173;-77
2021/05/28 10:17:18;;;;;;;2.45;0.98;;;14.10;99.90;;;;;;5034300;28;20177;-77
2021/05/28 10:19:48;;;;;;;1.42;1.05;;;14.20;99.90;;;;;;5034517;28;20181;-77
2021/05/28 10:22:17;;;;;;;1.42;1.10;;;14.10;99.90;;;;;;5034509;28;20189;-77
2021/05/28 10:24:43;;;;;;;1.63;1.00;;;13.90;99.90;;;;;;5033974;28;20209;-77
2021/05/28 10:27:09;;;;;;;1.77;1.20;;;14.00;99.90;;;;;;5035301;28;20215;-77
2021/05/28 10:29:36;;;;;;;1.93;1.27;;;13.70;99.90;;;;;;5034376;28;20181;-77
2021/05/28 10:32:11;;;;;;;1.30;1.20;;;13.90;99.90;;;;;;5035941;28;20453;-77
2021/05/28 10:35:13;;;;;;;2.70;1.50;;;14.00;99.90;;;;;;5034993;28;20188;-77
2021/05/28 10:37:44;;;;;;;1.90;1.45;;;14.10;99.90;;;;;;5034812;28;20165;-77
2021/05/28 10:40:26;;;;;;;1.42;0.95;;;13.90;99.90;;;;;;5036588;28;20239;-77
2021/05/28 10:43:06;;;;;;;1.50;1.08;;;13.80;99.90;;;;;;5034604;28;20677;-78
2021/05/28 10:46:07;;;;;;;1.23;1.00;;;13.80;99.90;;;;;;5035457;28;20261;-78
2021/05/28 10:48:42;;;;;;;1.73;1.02;;;13.80;99.90;;;;;;5033589;28;20165;-78
2021/05/28 10:51:41;;;;;;;1.35;1.10;;;13.50;99.90;;;;;;5033828;28;20172;-77
2021/05/28 10:54:07;;;;;;;8.10;1.45;;;13.60;99.90;;;;;;5034310;28;20231;-78
2021/05/28 10:56:35;;;;;;;1.70;1.60;;;13.40;99.90;;;;;;5034759;28;20169;-78
2021/05/28 10:59:14;;;;;;;1.20;0.90;;;13.40;99.90;;;;;;5036188;28;20196;-79
2021/05/28 11:01:51;;;;;;;2.17;1.80;;;13.20;99.90;;;;;;5037206;28;20192;-77
2021/05/28 11:04:44;;;;;;;2.42;1.20;;;13.40;99.90;;;;;;5039580;28;20177;-78
2021/05/28 11:07:09;;;;;;;1.65;1.23;;;13.40;99.90;;;;;;5034621;28;20204;-77
2021/05/28 11:09:36;;;;;;;1.37;1.07;;;13.60;99.90;;;;;;5034171;28;20170;-77
2021/05/28 11:12:03;;;;;;;1.40;1.02;;;13.60;99.90;;;;;;5033909;28;20193;-77
2021/05/28 11:14:29;;;;;;;3.15;1.10;;;13.70;99.90;;;;;;5033709;28;20177;-78
2021/05/28 11:16:55;;;;;;;2.13;1.10;;;13.80;99.90;;;;;;5034582;28;20169;-77
2021/05/28 11:19:21;;;;;;;2.50;1.30;;;13.40;99.90;;;;;;5034040;28;20239;-77
2021/05/28 11:21:59;;;;;;;3.10;1.75;;;13.40;99.90;;;;;;5033973;28;20511;-77
2021/05/28 11:24:47;;;;;;;1.90;1.40;;;13.60;99.90;;;;;;5032177;28;20264;-77
2021/05/28 11:27:14;;;;;;;1.65;1.02;;;13.30;99.90;;;;;;5033334;28;20253;-77
2021/05/28 11:29:41;;;;;;;2.53;1.30;;;13.20;99.90;;;;;;5034659;28;20169;-77
2021/05/28 11:32:31;;;;;;;3.53;1.25;;;13.10;99.90;;;;;;5034094;28;20562;-78
2021/05/28 11:35:19;;;;;;;1.70;1.60;;;13.10;99.90;;;;;;5035747;28;20174;-78
2021/05/28 11:38:06;;;;;;;1.90;1.30;;;13.20;99.90;;;;;;5034619;28;20204;-78
2021/05/28 11:40:34;;;;;;;4.90;2.20;;;13.30;99.90;;;;;;5017769;28;20271;-77
2021/05/28 11:43:19;;;;;;;2.13;1.33;;;13.30;99.90;;;;;;5037174;28;20212;-78
2021/05/28 11:45:51;;;;;;;2.15;1.67;;;13.50;99.90;;;;;;5041257;28;20251;-78
2021/05/28 11:48:19;;;;;;;1.42;1.33;;;13.70;99.90;;;;;;5033229;28;20268;-76
2021/05/28 11:50:51;;;;;;;1.45;1.10;;;13.70;99.90;;;;;;5031073;28;20591;-78
2021/05/28 11:53:18;;;;;;;1.25;1.05;;;13.80;99.90;;;;;;5015015;28;20182;-78
2021/05/28 11:55:55;;;;;;;1.60;1.45;;;13.90;99.90;;;;;;5041003;28;20242;-78
2021/05/28 11:58:23;;;;;;;2.00;1.40;;;13.90;99.90;;;;;;5012943;28;20184;-77
2021/05/28 12:00:53;;;;;;;1.65;1.48;;;14.10;99.90;;;;;;5043605;28;20527;-78
2021/05/28 12:03:19;;;;;;;2.47;1.65;;;14.10;99.90;;;;;;5033652;28;20220;-78
2021/05/28 12:05:47;;;;;;;1.75;1.48;;;14.20;99.90;;;;;;5052679;28;20230;-78
2021/05/28 12:08:29;;;;;;;1.70;1.40;;;14.30;99.90;;;;;;5035534;28;20174;-79
2021/05/28 12:10:57;;;;;;;2.42;1.40;;;14.60;99.90;;;;;;5043116;28;20186;-79
2021/05/28 12:13:24;;;;;;;2.40;1.50;;;15.00;99.90;;;;;;5025737;28;20189;-78
2021/05/28 12:16:01;;;;;;;1.52;1.10;;;15.20;99.90;;;;;;5041323;28;20186;-79
2021/05/28 12:18:28;;;;;;;1.90;1.20;;;15.30;99.90;;;;;;5042188;28;20812;-78
2021/05/28 12:21:15;;;;;;;2.47;1.70;;;15.10;99.90;;;;;;5028433;28;20189;-77
2021/05/28 12:23:51;;;;;;;2.80;2.03;;;15.40;99.90;;;;;;5038222;28;20221;-78
2021/05/28 12:26:19;;;;;;;1.70;1.30;;;15.50;99.90;;;;;;5040635;28;20423;-78
2021/05/28 12:28:48;;;;;;;1.47;1.27;;;14.90;99.90;;;;;;5032767;28;20448;-78
2021/05/28 12:31:14;;;;;;;7.10;1.30;;;14.80;99.90;;;;;;5034108;28;20508;-77
2021/05/28 12:33:51;;;;;;;1.63;1.20;;;14.90;99.90;;;;;;5034311;28;20467;-78
2021/05/28 12:36:17;;;;;;;1.10;0.80;;;14.90;99.90;;;;;;5032986;28;20408;-78
2021/05/28 12:38:47;;;;;;;1.20;0.90;;;15.00;99.90;;;;;;5034128;28;20414;-78
2021/05/28 12:41:24;;;;;;;1.10;0.80;;;14.40;99.90;;;;;;5035360;28;20700;-78
2021/05/28 12:43:53;;;;;;;2.05;1.10;;;14.10;99.90;;;;;;5035362;28;20295;-78
2021/05/28 12:46:21;;;;;;;2.38;0.85;;;14.10;99.90;;;;;;5032814;28;20177;-79
2021/05/28 12:48:51;;;;;;;1.42;1.27;;;14.00;99.90;;;;;;5032562;28;20200;-77
2021/05/28 12:51:38;;;;;;;1.15;1.05;;;14.00;99.90;;;;;;5032144;28;20285;-79